sensor_id;sensor_type;location;lat;lon;timestamp;pressure;altitude;pressure_sealevel;temperature;humidity
3748;BME280;1889;50.058;8.688;2023-07-20T00:01:38;100012.89;;;21.69;48.27
3748;BME280;1889;50.058;8.688;2023-07-20T00:04:15;100013.27;;;21.70;48.29
3748;BME280;1889;50.058;8.688;2023-07-20T00:06:47;100011.50;;;21.84;47.95
3748;BME280;1889;50.058;8.688;2023-07-20T00:09:16;100013.66;;;21.72;48.29
3748;BME280;1889;50.058;8.688;2023-07-20T00:11:49;100016.88;;;21.77;48.20
3748;BME280;1889;50.058;8.688;2023-07-20T00:14:27;100008.08;;;21.75;48.30
3748;BME280;1889;50.058;8.688;2023-07-20T00:17:02;100012.44;;;21.63;48.62
3748;BME280;1889;50.058;8.688;2023-07-20T00:19:31;100014.30;;;21.75;48.41
3748;BME280;1889;50.058;8.688;2023-07-20T00:22:00;100014.04;;;21.73;48.48
3748;BME280;1889;50.058;8.688;2023-07-20T00:24:30;100019.02;;;21.72;48.47
3748;BME280;1889;50.058;8.688;2023-07-20T00:27:00;100018.60;;;21.37;49.46
3748;BME280;1889;50.058;8.688;2023-07-20T00:29:31;100013.55;;;21.32;49.72
3748;BME280;1889;50.058;8.688;2023-07-20T00:32:00;100001.12;;;21.31;49.76
3748;BME280;1889;50.058;8.688;2023-07-20T00:34:34;100006.08;;;21.37;49.74
3748;BME280;1889;50.058;8.688;2023-07-20T00:37:04;100006.08;;;21.37;49.77
3748;BME280;1889;50.058;8.688;2023-07-20T00:39:33;100004.53;;;21.47;49.53
3748;BME280;1889;50.058;8.688;2023-07-20T00:42:08;99999.86;;;21.37;49.85
3748;BME280;1889;50.058;8.688;2023-07-20T00:44:38;99998.81;;;21.66;49.09
3748;BME280;1889;50.058;8.688;2023-07-20T00:47:07;100002.69;;;21.89;48.48
3748;BME280;1889;50.058;8.688;2023-07-20T00:49:38;100000.00;;;21.62;49.24
3748;BME280;1889;50.058;8.688;2023-07-20T00:52:10;100013.87;;;21.61;49.33
3748;BME280;1889;50.058;8.688;2023-07-20T00:54:52;100009.80;;;21.35;50.00
3748;BME280;1889;50.058;8.688;2023-07-20T00:57:24;100013.30;;;21.49;49.56
3748;BME280;1889;50.058;8.688;2023-07-20T00:59:54;100012.40;;;21.29;50.16
3748;BME280;1889;50.058;8.688;2023-07-20T01:02:23;100013.73;;;21.15;50.60
3748;BME280;1889;50.058;8.688;2023-07-20T01:04:52;100017.55;;;21.25;50.32
3748;BME280;1889;50.058;8.688;2023-07-20T01:07:26;100022.51;;;21.03;51.00
3748;BME280;1889;50.058;8.688;2023-07-20T01:12:41;100022.33;;;21.06;51.02
3748;BME280;1889;50.058;8.688;2023-07-20T01:15:11;100020.88;;;21.00;51.31
3748;BME280;1889;50.058;8.688;2023-07-20T01:17:40;100017.63;;;21.02;51.09
3748;BME280;1889;50.058;8.688;2023-07-20T01:20:12;100019.66;;;20.91;51.55
3748;BME280;1889;50.058;8.688;2023-07-20T01:28:53;100022.72;;;21.00;51.47
3748;BME280;1889;50.058;8.688;2023-07-20T01:31:27;100025.66;;;21.02;51.37
3748;BME280;1889;50.058;8.688;2023-07-20T01:33:58;100024.23;;;21.11;51.11
3748;BME280;1889;50.058;8.688;2023-07-20T01:36:32;100025.41;;;21.28;50.60
3748;BME280;1889;50.058;8.688;2023-07-20T01:39:02;100018.58;;;21.01;51.42
3748;BME280;1889;50.058;8.688;2023-07-20T01:41:33;100017.24;;;21.01;51.43
3748;BME280;1889;50.058;8.688;2023-07-20T01:44:04;100017.93;;;20.98;51.47
3748;BME280;1889;50.058;8.688;2023-07-20T01:46:33;100024.33;;;20.95;51.69
3748;BME280;1889;50.058;8.688;2023-07-20T01:49:02;100021.76;;;21.15;51.22
3748;BME280;1889;50.058;8.688;2023-07-20T01:51:31;100025.41;;;21.28;50.81
3748;BME280;1889;50.058;8.688;2023-07-20T01:54:00;100026.56;;;21.31;50.62
3748;BME280;1889;50.058;8.688;2023-07-20T01:56:29;100026.92;;;21.25;50.86
3748;BME280;1889;50.058;8.688;2023-07-20T01:58:58;100026.06;;;21.24;50.88
3748;BME280;1889;50.058;8.688;2023-07-20T02:01:28;100021.08;;;21.11;51.12
3748;BME280;1889;50.058;8.688;2023-07-20T02:03:57;100024.91;;;21.14;50.94
3748;BME280;1889;50.058;8.688;2023-07-20T02:06:26;100021.22;;;21.24;50.75
3748;BME280;1889;50.058;8.688;2023-07-20T02:08:55;100025.22;;;21.31;50.69
3748;BME280;1889;50.058;8.688;2023-07-20T02:11:24;100017.47;;;21.19;50.89
3748;BME280;1889;50.058;8.688;2023-07-20T02:13:53;100024.25;;;21.25;50.77
3748;BME280;1889;50.058;8.688;2023-07-20T02:16:22;100028.94;;;20.42;53.11
3748;BME280;1889;50.058;8.688;2023-07-20T02:18:52;100024.31;;;20.67;52.11
3748;BME280;1889;50.058;8.688;2023-07-20T02:21:21;100020.39;;;20.65;52.43
3748;BME280;1889;50.058;8.688;2023-07-20T02:23:50;100022.73;;;20.41;53.21
3748;BME280;1889;50.058;8.688;2023-07-20T02:26:19;100020.31;;;19.91;54.66
3748;BME280;1889;50.058;8.688;2023-07-20T02:28:48;100021.84;;;19.95;54.68
3748;BME280;1889;50.058;8.688;2023-07-20T02:31:17;100025.52;;;20.01;54.60
3748;BME280;1889;50.058;8.688;2023-07-20T02:33:46;100021.39;;;20.18;53.76
3748;BME280;1889;50.058;8.688;2023-07-20T02:36:15;100023.72;;;20.32;53.38
3748;BME280;1889;50.058;8.688;2023-07-20T02:38:44;100028.27;;;20.45;53.01
3748;BME280;1889;50.058;8.688;2023-07-20T02:41:14;100024.48;;;20.56;52.81
3748;BME280;1889;50.058;8.688;2023-07-20T02:43:43;100023.54;;;20.65;52.62
3748;BME280;1889;50.058;8.688;2023-07-20T02:46:12;100026.29;;;20.56;52.75
3748;BME280;1889;50.058;8.688;2023-07-20T02:48:41;100028.10;;;20.55;52.79
3748;BME280;1889;50.058;8.688;2023-07-20T02:51:10;100027.93;;;20.59;52.64
3748;BME280;1889;50.058;8.688;2023-07-20T02:53:39;100025.43;;;20.55;52.71
3748;BME280;1889;50.058;8.688;2023-07-20T02:56:08;100025.89;;;20.48;52.86
3748;BME280;1889;50.058;8.688;2023-07-20T02:58:40;100024.94;;;20.49;52.81
3748;BME280;1889;50.058;8.688;2023-07-20T03:01:10;100020.77;;;20.59;52.64
3748;BME280;1889;50.058;8.688;2023-07-20T03:03:40;100028.02;;;20.57;52.52
3748;BME280;1889;50.058;8.688;2023-07-20T03:06:10;100036.43;;;20.58;52.44
3748;BME280;1889;50.058;8.688;2023-07-20T03:08:39;100033.08;;;20.62;52.28
3748;BME280;1889;50.058;8.688;2023-07-20T03:11:09;100032.03;;;20.57;52.34
3748;BME280;1889;50.058;8.688;2023-07-20T03:13:38;100028.66;;;20.53;52.58
3748;BME280;1889;50.058;8.688;2023-07-20T03:16:07;100031.55;;;20.58;52.51
3748;BME280;1889;50.058;8.688;2023-07-20T03:18:38;100032.73;;;20.38;53.30
3748;BME280;1889;50.058;8.688;2023-07-20T03:21:08;100034.09;;;19.76;55.13
3748;BME280;1889;50.058;8.688;2023-07-20T03:23:40;100029.93;;;19.71;55.14
3748;BME280;1889;50.058;8.688;2023-07-20T03:26:10;100031.81;;;20.00;54.11
3748;BME280;1889;50.058;8.688;2023-07-20T03:28:39;100031.78;;;19.93;54.63
3748;BME280;1889;50.058;8.688;2023-07-20T03:31:08;100039.33;;;19.94;54.47
3748;BME280;1889;50.058;8.688;2023-07-20T03:33:38;100039.86;;;20.07;54.13
3748;BME280;1889;50.058;8.688;2023-07-20T03:36:07;100039.02;;;20.14;53.91
3748;BME280;1889;50.058;8.688;2023-07-20T03:38:38;100032.27;;;20.23;53.73
3748;BME280;1889;50.058;8.688;2023-07-20T03:41:08;100037.98;;;20.16;54.05
3748;BME280;1889;50.058;8.688;2023-07-20T03:43:37;100033.03;;;19.79;55.28
3748;BME280;1889;50.058;8.688;2023-07-20T03:46:06;100035.62;;;20.03;54.42
3748;BME280;1889;50.058;8.688;2023-07-20T03:48:36;100034.14;;;20.13;54.05
3748;BME280;1889;50.058;8.688;2023-07-20T03:51:05;100029.97;;;20.16;53.88
3748;BME280;1889;50.058;8.688;2023-07-20T03:53:34;100025.88;;;20.18;53.89
3748;BME280;1889;50.058;8.688;2023-07-20T03:56:03;100037.23;;;20.22;53.82
3748;BME280;1889;50.058;8.688;2023-07-20T03:58:33;100036.09;;;20.18;53.92
3748;BME280;1889;50.058;8.688;2023-07-20T04:01:02;100034.47;;;20.23;53.74
3748;BME280;1889;50.058;8.688;2023-07-20T04:03:31;100038.31;;;20.26;53.63
3748;BME280;1889;50.058;8.688;2023-07-20T04:06:00;100042.27;;;20.19;53.85
3748;BME280;1889;50.058;8.688;2023-07-20T04:08:29;100038.46;;;20.16;54.00
3748;BME280;1889;50.058;8.688;2023-07-20T04:11:03;100033.03;;;20.17;53.92
3748;BME280;1889;50.058;8.688;2023-07-20T04:13:32;100038.98;;;19.84;55.02
3748;BME280;1889;50.058;8.688;2023-07-20T04:16:02;100041.83;;;20.04;54.35
3748;BME280;1889;50.058;8.688;2023-07-20T04:18:31;100040.11;;;20.03;54.38
3748;BME280;1889;50.058;8.688;2023-07-20T04:21:00;100043.13;;;19.74;55.42
3748;BME280;1889;50.058;8.688;2023-07-20T04:23:29;100045.30;;;19.90;54.69
3748;BME280;1889;50.058;8.688;2023-07-20T04:25:59;100047.17;;;20.04;54.18
3748;BME280;1889;50.058;8.688;2023-07-20T04:28:28;100053.13;;;19.86;54.90
3748;BME280;1889;50.058;8.688;2023-07-20T04:31:14;100050.20;;;19.98;54.24
3748;BME280;1889;50.058;8.688;2023-07-20T04:33:43;100053.71;;;19.91;54.65
3748;BME280;1889;50.058;8.688;2023-07-20T04:36:12;100050.83;;;19.56;55.98
3748;BME280;1889;50.058;8.688;2023-07-20T04:38:43;100051.36;;;19.78;55.28
3748;BME280;1889;50.058;8.688;2023-07-20T04:41:12;100048.14;;;19.87;54.88
3748;BME280;1889;50.058;8.688;2023-07-20T04:43:43;100048.14;;;19.87;54.88
3748;BME280;1889;50.058;8.688;2023-07-20T04:46:12;100042.69;;;19.66;55.66
3748;BME280;1889;50.058;8.688;2023-07-20T04:48:42;100051.09;;;19.67;55.73
3748;BME280;1889;50.058;8.688;2023-07-20T04:51:11;100053.33;;;19.34;56.89
3748;BME280;1889;50.058;8.688;2023-07-20T04:53:40;100051.20;;;19.32;56.89
3748;BME280;1889;50.058;8.688;2023-07-20T04:56:10;100052.20;;;19.38;56.81
3748;BME280;1889;50.058;8.688;2023-07-20T04:58:39;100055.41;;;19.45;56.57
3748;BME280;1889;50.058;8.688;2023-07-20T05:01:08;100054.44;;;19.55;56.23
3748;BME280;1889;50.058;8.688;2023-07-20T05:03:38;100059.19;;;19.41;57.01
3748;BME280;1889;50.058;8.688;2023-07-20T05:06:07;100059.19;;;19.41;57.01
3748;BME280;1889;50.058;8.688;2023-07-20T05:08:36;100065.23;;;19.69;56.21
3748;BME280;1889;50.058;8.688;2023-07-20T05:11:07;100064.16;;;19.31;57.39
3748;BME280;1889;50.058;8.688;2023-07-20T05:13:37;100068.30;;;19.70;56.26
3748;BME280;1889;50.058;8.688;2023-07-20T05:16:06;100069.52;;;19.87;55.60
3748;BME280;1889;50.058;8.688;2023-07-20T05:18:35;100069.20;;;19.77;55.90
3748;BME280;1889;50.058;8.688;2023-07-20T05:21:06;100069.20;;;19.77;55.90
3748;BME280;1889;50.058;8.688;2023-07-20T05:23:35;100073.33;;;19.83;56.06
3748;BME280;1889;50.058;8.688;2023-07-20T05:26:05;100071.62;;;20.05;55.60
3748;BME280;1889;50.058;8.688;2023-07-20T05:28:35;100070.09;;;20.24;54.95
3748;BME280;1889;50.058;8.688;2023-07-20T05:31:04;100066.89;;;19.78;56.35
3748;BME280;1889;50.058;8.688;2023-07-20T05:33:33;100066.24;;;19.98;55.84
3748;BME280;1889;50.058;8.688;2023-07-20T05:36:03;100066.77;;;20.11;55.30
3748;BME280;1889;50.058;8.688;2023-07-20T05:38:32;100070.00;;;20.25;55.03
3748;BME280;1889;50.058;8.688;2023-07-20T05:41:02;100071.95;;;20.14;55.34
3748;BME280;1889;50.058;8.688;2023-07-20T05:43:31;100069.36;;;20.13;55.42
3748;BME280;1889;50.058;8.688;2023-07-20T05:46:01;100064.16;;;20.03;55.88
3748;BME280;1889;50.058;8.688;2023-07-20T05:48:30;100071.26;;;20.27;55.32
3748;BME280;1889;50.058;8.688;2023-07-20T05:51:00;100061.77;;;20.44;54.78
3748;BME280;1889;50.058;8.688;2023-07-20T05:53:29;100076.65;;;20.64;54.39
3748;BME280;1889;50.058;8.688;2023-07-20T05:55:58;100070.45;;;20.70;54.26
3748;BME280;1889;50.058;8.688;2023-07-20T05:58:27;100073.50;;;20.64;54.17
3748;BME280;1889;50.058;8.688;2023-07-20T06:00:57;100078.92;;;20.55;54.61
3748;BME280;1889;50.058;8.688;2023-07-20T06:03:26;100082.23;;;20.52;54.78
3748;BME280;1889;50.058;8.688;2023-07-20T06:06:02;100086.95;;;20.63;54.54
3748;BME280;1889;50.058;8.688;2023-07-20T06:08:33;100087.98;;;20.83;53.99
3748;BME280;1889;50.058;8.688;2023-07-20T06:11:02;100083.23;;;20.35;55.19
3748;BME280;1889;50.058;8.688;2023-07-20T06:13:31;100089.03;;;20.50;54.90
3748;BME280;1889;50.058;8.688;2023-07-20T06:16:00;100088.96;;;19.82;57.03
3748;BME280;1889;50.058;8.688;2023-07-20T06:18:30;100088.96;;;19.82;57.03
3748;BME280;1889;50.058;8.688;2023-07-20T06:20:59;100099.07;;;20.15;56.10
3748;BME280;1889;50.058;8.688;2023-07-20T06:23:28;100085.42;;;20.36;55.28
3748;BME280;1889;50.058;8.688;2023-07-20T06:25:57;100095.67;;;20.66;54.65
3748;BME280;1889;50.058;8.688;2023-07-20T06:28:26;100091.78;;;20.86;54.14
3748;BME280;1889;50.058;8.688;2023-07-20T06:31:02;100096.80;;;21.13;53.24
3748;BME280;1889;50.058;8.688;2023-07-20T06:33:31;100096.80;;;21.13;53.24
3748;BME280;1889;50.058;8.688;2023-07-20T06:36:01;100093.44;;;21.10;53.47
3748;BME280;1889;50.058;8.688;2023-07-20T06:38:30;100098.69;;;20.97;53.86
3748;BME280;1889;50.058;8.688;2023-07-20T06:40:59;100100.83;;;20.76;54.39
3748;BME280;1889;50.058;8.688;2023-07-20T06:43:28;100101.76;;;20.98;53.59
3748;BME280;1889;50.058;8.688;2023-07-20T06:45:57;100105.92;;;20.81;54.22
3748;BME280;1889;50.058;8.688;2023-07-20T06:48:26;100106.56;;;20.70;54.62
3748;BME280;1889;50.058;8.688;2023-07-20T06:50:56;100111.63;;;20.45;55.07
3748;BME280;1889;50.058;8.688;2023-07-20T06:53:25;100102.02;;;20.49;55.11
3748;BME280;1889;50.058;8.688;2023-07-20T06:55:54;100106.86;;;20.73;54.85
3748;BME280;1889;50.058;8.688;2023-07-20T06:58:25;100112.04;;;20.53;55.06
3748;BME280;1889;50.058;8.688;2023-07-20T07:00:54;100104.05;;;20.22;55.55
3748;BME280;1889;50.058;8.688;2023-07-20T07:03:23;100098.82;;;20.66;54.80
3748;BME280;1889;50.058;8.688;2023-07-20T07:05:55;100104.48;;;20.75;54.62
3748;BME280;1889;50.058;8.688;2023-07-20T07:08:24;100110.31;;;20.75;54.49
3748;BME280;1889;50.058;8.688;2023-07-20T07:10:53;100109.09;;;20.50;55.27
3748;BME280;1889;50.058;8.688;2023-07-20T07:13:23;100116.59;;;20.44;55.27
3748;BME280;1889;50.058;8.688;2023-07-20T07:15:52;100113.27;;;20.84;54.54
3748;BME280;1889;50.058;8.688;2023-07-20T07:18:22;100113.27;;;20.84;54.54
3748;BME280;1889;50.058;8.688;2023-07-20T07:20:53;100111.86;;;20.93;54.29
3748;BME280;1889;50.058;8.688;2023-07-20T07:23:22;100113.77;;;20.54;54.55
3748;BME280;1889;50.058;8.688;2023-07-20T07:25:51;100106.52;;;20.56;54.71
3748;BME280;1889;50.058;8.688;2023-07-20T07:28:20;100113.10;;;20.87;54.07
3748;BME280;1889;50.058;8.688;2023-07-20T07:30:49;100117.81;;;20.68;54.39
3748;BME280;1889;50.058;8.688;2023-07-20T07:33:18;100112.81;;;20.92;53.69
3748;BME280;1889;50.058;8.688;2023-07-20T07:35:47;100123.56;;;20.69;53.85
3748;BME280;1889;50.058;8.688;2023-07-20T07:38:16;100123.30;;;20.74;53.99
3748;BME280;1889;50.058;8.688;2023-07-20T07:40:46;100120.39;;;20.63;54.15
3748;BME280;1889;50.058;8.688;2023-07-20T07:43:15;100115.73;;;20.66;54.20
3748;BME280;1889;50.058;8.688;2023-07-20T07:45:44;100119.56;;;20.76;54.18
3748;BME280;1889;50.058;8.688;2023-07-20T07:48:13;100121.19;;;21.16;53.10
3748;BME280;1889;50.058;8.688;2023-07-20T07:50:43;100121.15;;;21.02;53.21
3748;BME280;1889;50.058;8.688;2023-07-20T07:53:12;100122.00;;;21.39;52.73
3748;BME280;1889;50.058;8.688;2023-07-20T07:55:41;100121.49;;;21.25;52.88
3748;BME280;1889;50.058;8.688;2023-07-20T07:58:10;100119.13;;;21.56;51.99
3748;BME280;1889;50.058;8.688;2023-07-20T08:00:39;100123.03;;;21.72;51.51
3748;BME280;1889;50.058;8.688;2023-07-20T08:03:08;100119.16;;;21.90;51.04
3748;BME280;1889;50.058;8.688;2023-07-20T08:05:37;100120.59;;;21.96;50.90
3748;BME280;1889;50.058;8.688;2023-07-20T08:08:07;100116.09;;;22.11;50.45
3748;BME280;1889;50.058;8.688;2023-07-20T08:10:37;100123.66;;;21.90;50.86
3748;BME280;1889;50.058;8.688;2023-07-20T08:13:06;100122.73;;;21.69;51.13
3748;BME280;1889;50.058;8.688;2023-07-20T08:15:35;100126.05;;;21.94;50.18
3748;BME280;1889;50.058;8.688;2023-07-20T08:18:04;100118.55;;;21.44;51.00
3748;BME280;1889;50.058;8.688;2023-07-20T08:20:33;100122.39;;;21.40;51.07
3748;BME280;1889;50.058;8.688;2023-07-20T08:23:03;100120.93;;;21.27;51.55
3748;BME280;1889;50.058;8.688;2023-07-20T08:25:32;100121.23;;;21.30;52.00
3748;BME280;1889;50.058;8.688;2023-07-20T08:28:01;100131.13;;;21.14;52.09
3748;BME280;1889;50.058;8.688;2023-07-20T08:30:42;100130.77;;;21.41;51.70
3748;BME280;1889;50.058;8.688;2023-07-20T08:33:13;100126.00;;;21.60;50.85
3748;BME280;1889;50.058;8.688;2023-07-20T08:35:43;100125.78;;;21.99;50.25
3748;BME280;1889;50.058;8.688;2023-07-20T08:38:12;100119.77;;;22.22;49.49
3748;BME280;1889;50.058;8.688;2023-07-20T08:40:43;100116.23;;;22.49;49.10
3748;BME280;1889;50.058;8.688;2023-07-20T08:43:14;100116.58;;;22.30;49.66
3748;BME280;1889;50.058;8.688;2023-07-20T08:45:47;100124.77;;;22.68;48.70
3748;BME280;1889;50.058;8.688;2023-07-20T08:48:18;100125.30;;;22.80;48.21
3748;BME280;1889;50.058;8.688;2023-07-20T08:50:51;100118.54;;;22.87;47.85
3748;BME280;1889;50.058;8.688;2023-07-20T08:53:21;100120.59;;;22.96;47.66
3748;BME280;1889;50.058;8.688;2023-07-20T08:55:51;100117.71;;;22.99;47.65
3748;BME280;1889;50.058;8.688;2023-07-20T08:58:24;100113.15;;;23.07;47.41
3748;BME280;1889;50.058;8.688;2023-07-20T09:00:54;100116.90;;;23.04;47.37
3748;BME280;1889;50.058;8.688;2023-07-20T09:03:23;100108.52;;;22.96;46.88
3748;BME280;1889;50.058;8.688;2023-07-20T09:05:53;100109.45;;;23.02;47.30
3748;BME280;1889;50.058;8.688;2023-07-20T09:08:22;100114.30;;;23.10;46.54
3748;BME280;1889;50.058;8.688;2023-07-20T09:10:51;100114.22;;;23.04;46.15
3748;BME280;1889;50.058;8.688;2023-07-20T09:13:20;100110.53;;;22.80;46.84
3748;BME280;1889;50.058;8.688;2023-07-20T09:15:54;100116.70;;;23.07;46.61
3748;BME280;1889;50.058;8.688;2023-07-20T09:18:28;100108.69;;;23.13;46.42
3748;BME280;1889;50.058;8.688;2023-07-20T09:21:02;100120.70;;;22.95;46.50
3748;BME280;1889;50.058;8.688;2023-07-20T09:23:35;100115.97;;;22.39;47.75
3748;BME280;1889;50.058;8.688;2023-07-20T09:26:11;100111.50;;;22.72;47.47
3748;BME280;1889;50.058;8.688;2023-07-20T09:28:52;100110.34;;;22.83;47.08
3748;BME280;1889;50.058;8.688;2023-07-20T09:31:23;100109.94;;;23.02;46.50
3748;BME280;1889;50.058;8.688;2023-07-20T09:33:53;100108.31;;;22.99;46.77
3748;BME280;1889;50.058;8.688;2023-07-20T09:36:22;100108.66;;;22.88;47.08
3748;BME280;1889;50.058;8.688;2023-07-20T09:38:51;100108.03;;;22.97;46.83
3748;BME280;1889;50.058;8.688;2023-07-20T09:41:21;100109.27;;;22.98;45.30
3748;BME280;1889;50.058;8.688;2023-07-20T09:43:50;100110.39;;;22.69;45.93
3748;BME280;1889;50.058;8.688;2023-07-20T09:46:20;100104.92;;;22.51;46.22
3748;BME280;1889;50.058;8.688;2023-07-20T09:48:53;100106.56;;;22.66;45.95
3748;BME280;1889;50.058;8.688;2023-07-20T09:51:23;100105.60;;;22.67;45.97
3748;BME280;1889;50.058;8.688;2023-07-20T09:53:53;100109.33;;;22.25;46.85
3748;BME280;1889;50.058;8.688;2023-07-20T09:56:23;100105.45;;;22.09;47.62
3748;BME280;1889;50.058;8.688;2023-07-20T09:58:53;100108.50;;;22.17;47.39
3748;BME280;1889;50.058;8.688;2023-07-20T10:01:22;100108.47;;;22.24;47.54
3748;BME280;1889;50.058;8.688;2023-07-20T10:03:54;100102.75;;;22.16;47.79
3748;BME280;1889;50.058;8.688;2023-07-20T10:06:25;100105.53;;;22.41;47.38
3748;BME280;1889;50.058;8.688;2023-07-20T10:08:58;100103.58;;;22.51;47.21
3748;BME280;1889;50.058;8.688;2023-07-20T10:11:34;100103.09;;;22.51;47.12
3748;BME280;1889;50.058;8.688;2023-07-20T10:13:59;100099.75;;;22.67;47.22
3748;BME280;1889;50.058;8.688;2023-07-20T10:16:34;100102.03;;;22.93;46.61
3748;BME280;1889;50.058;8.688;2023-07-20T10:19:22;100092.41;;;23.21;46.41
3748;BME280;1889;50.058;8.688;2023-07-20T10:21:47;100088.56;;;23.51;45.70
3748;BME280;1889;50.058;8.688;2023-07-20T10:24:16;100094.35;;;23.32;45.86
3748;BME280;1889;50.058;8.688;2023-07-20T10:26:46;100087.74;;;23.56;45.11
3748;BME280;1889;50.058;8.688;2023-07-20T10:29:15;100082.58;;;23.40;44.93
3748;BME280;1889;50.058;8.688;2023-07-20T10:31:45;100081.29;;;23.20;45.66
3748;BME280;1889;50.058;8.688;2023-07-20T10:34:14;100083.77;;;23.24;45.78
3748;BME280;1889;50.058;8.688;2023-07-20T10:36:46;100075.89;;;23.02;46.22
3748;BME280;1889;50.058;8.688;2023-07-20T10:39:25;100078.78;;;22.99;46.39
3748;BME280;1889;50.058;8.688;2023-07-20T10:42:07;100074.05;;;23.15;46.06
3748;BME280;1889;50.058;8.688;2023-07-20T10:44:40;100066.01;;;23.46;45.66
3748;BME280;1889;50.058;8.688;2023-07-20T10:47:11;100068.31;;;23.45;45.52
3748;BME280;1889;50.058;8.688;2023-07-20T10:49:59;100068.70;;;23.95;45.02
3748;BME280;1889;50.058;8.688;2023-07-20T10:52:42;100063.44;;;24.36;44.18
3748;BME280;1889;50.058;8.688;2023-07-20T10:55:15;100063.60;;;24.46;43.31
3748;BME280;1889;50.058;8.688;2023-07-20T10:58:00;100059.36;;;24.07;43.07
3748;BME280;1889;50.058;8.688;2023-07-20T11:00:18;100055.20;;;24.26;42.91
3748;BME280;1889;50.058;8.688;2023-07-20T11:02:49;100049.78;;;24.50;42.71
3748;BME280;1889;50.058;8.688;2023-07-20T11:05:32;100053.44;;;24.49;42.95
3748;BME280;1889;50.058;8.688;2023-07-20T11:08:06;100054.50;;;24.36;42.28
3748;BME280;1889;50.058;8.688;2023-07-20T11:10:35;100054.02;;;24.18;41.15
3748;BME280;1889;50.058;8.688;2023-07-20T11:13:24;100054.69;;;24.03;41.36
3748;BME280;1889;50.058;8.688;2023-07-20T11:18:33;100059.27;;;23.72;42.15
3748;BME280;1889;50.058;8.688;2023-07-20T11:21:07;100061.93;;;23.66;42.44
3748;BME280;1889;50.058;8.688;2023-07-20T11:23:38;100053.59;;;23.64;42.78
3748;BME280;1889;50.058;8.688;2023-07-20T11:26:08;100056.77;;;24.00;42.03
3748;BME280;1889;50.058;8.688;2023-07-20T11:28:37;100061.70;;;23.51;43.05
3748;BME280;1889;50.058;8.688;2023-07-20T11:31:06;100052.66;;;23.88;42.54
3748;BME280;1889;50.058;8.688;2023-07-20T11:33:36;100046.80;;;24.13;42.26
3748;BME280;1889;50.058;8.688;2023-07-20T11:36:05;100051.03;;;24.04;42.44
3748;BME280;1889;50.058;8.688;2023-07-20T11:38:34;100044.61;;;24.18;42.23
3748;BME280;1889;50.058;8.688;2023-07-20T11:41:04;100044.13;;;24.42;41.95
3748;BME280;1889;50.058;8.688;2023-07-20T11:43:33;100044.55;;;24.25;41.94
3748;BME280;1889;50.058;8.688;2023-07-20T11:46:02;100046.98;;;23.80;43.02
3748;BME280;1889;50.058;8.688;2023-07-20T11:48:33;100043.44;;;24.04;42.75
3748;BME280;1889;50.058;8.688;2023-07-20T11:51:02;100041.86;;;24.54;41.99
3748;BME280;1889;50.058;8.688;2023-07-20T11:53:31;100031.02;;;24.84;41.46
3748;BME280;1889;50.058;8.688;2023-07-20T11:56:03;100028.59;;;24.81;41.46
3748;BME280;1889;50.058;8.688;2023-07-20T11:58:32;100033.11;;;24.86;41.40
3748;BME280;1889;50.058;8.688;2023-07-20T12:01:01;100031.99;;;24.83;41.00
3748;BME280;1889;50.058;8.688;2023-07-20T12:03:31;100037.67;;;24.50;40.82
3748;BME280;1889;50.058;8.688;2023-07-20T12:06:08;100023.02;;;24.65;40.61
3748;BME280;1889;50.058;8.688;2023-07-20T12:08:46;100015.20;;;24.62;40.67
3748;BME280;1889;50.058;8.688;2023-07-20T12:11:11;100017.80;;;24.29;41.53
3748;BME280;1889;50.058;8.688;2023-07-20T12:13:44;100020.86;;;24.30;41.50
3748;BME280;1889;50.058;8.688;2023-07-20T12:16:16;100015.30;;;23.96;41.89
3748;BME280;1889;50.058;8.688;2023-07-20T12:18:45;100013.06;;;24.14;41.75
3748;BME280;1889;50.058;8.688;2023-07-20T12:21:14;99999.69;;;24.77;40.90
3748;BME280;1889;50.058;8.688;2023-07-20T12:23:43;100001.93;;;25.22;39.92
3748;BME280;1889;50.058;8.688;2023-07-20T12:26:14;99999.88;;;25.03;40.23
3748;BME280;1889;50.058;8.688;2023-07-20T12:28:43;100004.95;;;24.90;40.18
3748;BME280;1889;50.058;8.688;2023-07-20T12:31:12;100004.23;;;24.88;40.53
3748;BME280;1889;50.058;8.688;2023-07-20T12:33:42;100005.60;;;24.99;39.62
3748;BME280;1889;50.058;8.688;2023-07-20T12:36:11;100004.52;;;25.01;39.64
3748;BME280;1889;50.058;8.688;2023-07-20T12:38:40;99999.94;;;24.80;39.93
3748;BME280;1889;50.058;8.688;2023-07-20T12:41:11;100002.75;;;24.78;39.77
3748;BME280;1889;50.058;8.688;2023-07-20T12:43:41;100002.52;;;24.87;39.25
3748;BME280;1889;50.058;8.688;2023-07-20T12:46:11;100001.52;;;24.77;39.53
3748;BME280;1889;50.058;8.688;2023-07-20T12:48:41;100007.20;;;24.44;40.16
3748;BME280;1889;50.058;8.688;2023-07-20T12:51:11;100003.31;;;24.65;39.92
3748;BME280;1889;50.058;8.688;2023-07-20T12:53:41;99993.92;;;24.70;39.76
3748;BME280;1889;50.058;8.688;2023-07-20T12:56:10;99989.89;;;24.76;38.62
3748;BME280;1889;50.058;8.688;2023-07-20T12:58:39;99992.95;;;24.71;38.42
3748;BME280;1889;50.058;8.688;2023-07-20T13:01:08;99991.05;;;24.39;38.88
3748;BME280;1889;50.058;8.688;2023-07-20T13:03:37;99987.63;;;24.18;39.20
3748;BME280;1889;50.058;8.688;2023-07-20T13:06:06;99984.64;;;23.99;39.07
3748;BME280;1889;50.058;8.688;2023-07-20T13:08:35;99983.95;;;24.43;38.65
3748;BME280;1889;50.058;8.688;2023-07-20T13:11:04;99983.98;;;24.54;37.64
3748;BME280;1889;50.058;8.688;2023-07-20T13:13:33;99987.45;;;24.27;38.58
3748;BME280;1889;50.058;8.688;2023-07-20T13:16:03;99984.77;;;24.27;38.25
3748;BME280;1889;50.058;8.688;2023-07-20T13:18:32;99981.63;;;24.44;37.96
3748;BME280;1889;50.058;8.688;2023-07-20T13:21:01;99977.75;;;24.48;37.30
3748;BME280;1889;50.058;8.688;2023-07-20T13:23:30;99975.23;;;24.23;38.08
3748;BME280;1889;50.058;8.688;2023-07-20T13:26:00;99972.66;;;24.27;38.31
3748;BME280;1889;50.058;8.688;2023-07-20T13:28:29;99967.32;;;24.49;37.97
3748;BME280;1889;50.058;8.688;2023-07-20T13:30:58;99964.30;;;24.82;37.58
3748;BME280;1889;50.058;8.688;2023-07-20T13:33:27;99961.79;;;25.02;37.63
3748;BME280;1889;50.058;8.688;2023-07-20T13:35:57;99963.13;;;25.19;37.63
3748;BME280;1889;50.058;8.688;2023-07-20T13:38:26;99956.59;;;25.38;37.33
3748;BME280;1889;50.058;8.688;2023-07-20T13:40:55;99959.12;;;25.57;36.72